sensor_id;sensor_type;location;lat;lon;timestamp;temperature;humidity
18717;DHT22;9487;50.892;6.906;2023-05-16T00:01:55;11.60;99.90
18717;DHT22;9487;50.892;6.906;2023-05-16T00:04:24;11.50;99.90
18717;DHT22;9487;50.892;6.906;2023-05-16T00:06:51;11.50;99.90
18717;DHT22;9487;50.892;6.906;2023-05-16T00:09:18;11.50;99.90
18717;DHT22;9487;50.892;6.906;2023-05-16T00:11:46;11.40;99.90
18717;DHT22;9487;50.892;6.906;2023-05-16T00:14:14;11.40;99.90
18717;DHT22;9487;50.892;6.906;2023-05-16T00:16:41;11.30;99.90
18717;DHT22;9487;50.892;6.906;2023-05-16T00:19:08;11.20;99.90
18717;DHT22;9487;50.892;6.906;2023-05-16T00:21:36;11.10;99.90
18717;DHT22;9487;50.892;6.906;2023-05-16T00:24:03;11.20;99.90
18717;DHT22;9487;50.892;6.906;2023-05-16T00:26:30;11.20;99.90
18717;DHT22;9487;50.892;6.906;2023-05-16T00:28:57;11.20;99.90
18717;DHT22;9487;50.892;6.906;2023-05-16T00:31:24;11.20;99.90
18717;DHT22;9487;50.892;6.906;2023-05-16T00:33:51;11.10;99.90
18717;DHT22;9487;50.892;6.906;2023-05-16T00:36:17;11.00;99.90
18717;DHT22;9487;50.892;6.906;2023-05-16T00:38:45;11.00;99.90
18717;DHT22;9487;50.892;6.906;2023-05-16T00:41:13;11.00;99.90
18717;DHT22;9487;50.892;6.906;2023-05-16T00:43:40;11.00;99.90
18717;DHT22;9487;50.892;6.906;2023-05-16T00:46:06;11.00;99.90
18717;DHT22;9487;50.892;6.906;2023-05-16T00:48:33;11.00;99.90
18717;DHT22;9487;50.892;6.906;2023-05-16T00:51:00;11.00;99.90
18717;DHT22;9487;50.892;6.906;2023-05-16T00:53:27;10.90;99.90
18717;DHT22;9487;50.892;6.906;2023-05-16T00:55:57;10.90;99.90
18717;DHT22;9487;50.892;6.906;2023-05-16T00:58:24;11.00;99.90
18717;DHT22;9487;50.892;6.906;2023-05-16T01:00:51;10.90;99.90
18717;DHT22;9487;50.892;6.906;2023-05-16T01:03:18;10.90;99.90
18717;DHT22;9487;50.892;6.906;2023-05-16T01:05:45;10.90;99.90
18717;DHT22;9487;50.892;6.906;2023-05-16T01:08:12;10.80;99.90
18717;DHT22;9487;50.892;6.906;2023-05-16T01:10:45;10.80;99.90
18717;DHT22;9487;50.892;6.906;2023-05-16T01:13:23;10.70;99.90
18717;DHT22;9487;50.892;6.906;2023-05-16T01:15:58;10.70;99.90
18717;DHT22;9487;50.892;6.906;2023-05-16T01:18:32;10.70;99.90
18717;DHT22;9487;50.892;6.906;2023-05-16T01:21:05;10.70;99.90
18717;DHT22;9487;50.892;6.906;2023-05-16T01:23:40;10.70;99.90
18717;DHT22;9487;50.892;6.906;2023-05-16T01:26:16;10.60;99.90
18717;DHT22;9487;50.892;6.906;2023-05-16T01:28:44;10.60;99.90
18717;DHT22;9487;50.892;6.906;2023-05-16T01:31:12;10.60;99.90
18717;DHT22;9487;50.892;6.906;2023-05-16T01:33:39;10.60;99.90
18717;DHT22;9487;50.892;6.906;2023-05-16T01:36:11;10.50;99.90
18717;DHT22;9487;50.892;6.906;2023-05-16T01:38:43;10.40;99.90
18717;DHT22;9487;50.892;6.906;2023-05-16T01:41:17;10.50;99.90
18717;DHT22;9487;50.892;6.906;2023-05-16T01:43:50;10.40;99.90
18717;DHT22;9487;50.892;6.906;2023-05-16T01:46:22;10.30;99.90
18717;DHT22;9487;50.892;6.906;2023-05-16T01:48:52;10.20;99.90
18717;DHT22;9487;50.892;6.906;2023-05-16T01:51:21;10.20;99.90
18717;DHT22;9487;50.892;6.906;2023-05-16T01:53:49;10.20;99.90
18717;DHT22;9487;50.892;6.906;2023-05-16T01:56:18;10.20;99.90
18717;DHT22;9487;50.892;6.906;2023-05-16T01:58:48;10.20;99.90
18717;DHT22;9487;50.892;6.906;2023-05-16T02:01:15;10.10;99.90
18717;DHT22;9487;50.892;6.906;2023-05-16T02:03:42;10.10;99.90
18717;DHT22;9487;50.892;6.906;2023-05-16T02:06:09;10.00;99.90
18717;DHT22;9487;50.892;6.906;2023-05-16T02:08:35;10.00;99.90
18717;DHT22;9487;50.892;6.906;2023-05-16T02:11:02;9.90;99.90
18717;DHT22;9487;50.892;6.906;2023-05-16T02:13:30;9.90;99.90
18717;DHT22;9487;50.892;6.906;2023-05-16T02:22:31;9.80;99.90
18717;DHT22;9487;50.892;6.906;2023-05-16T02:24:59;9.80;99.90
18717;DHT22;9487;50.892;6.906;2023-05-16T02:27:26;9.80;99.90
18717;DHT22;9487;50.892;6.906;2023-05-16T02:29:54;9.70;99.90
18717;DHT22;9487;50.892;6.906;2023-05-16T02:32:21;9.80;99.90
18717;DHT22;9487;50.892;6.906;2023-05-16T02:34:48;9.80;99.90
18717;DHT22;9487;50.892;6.906;2023-05-16T02:37:15;9.70;99.90
18717;DHT22;9487;50.892;6.906;2023-05-16T02:39:42;9.70;99.90
18717;DHT22;9487;50.892;6.906;2023-05-16T02:42:09;9.80;99.90
18717;DHT22;9487;50.892;6.906;2023-05-16T02:44:35;9.70;99.90
18717;DHT22;9487;50.892;6.906;2023-05-16T02:47:04;9.70;99.90
18717;DHT22;9487;50.892;6.906;2023-05-16T02:49:30;9.70;99.90
18717;DHT22;9487;50.892;6.906;2023-05-16T02:51:57;9.70;99.90
18717;DHT22;9487;50.892;6.906;2023-05-16T02:54:24;9.60;99.90
18717;DHT22;9487;50.892;6.906;2023-05-16T02:56:51;9.50;99.90
18717;DHT22;9487;50.892;6.906;2023-05-16T02:59:17;9.60;99.90
18717;DHT22;9487;50.892;6.906;2023-05-16T03:01:44;9.50;99.90
18717;DHT22;9487;50.892;6.906;2023-05-16T03:04:13;9.60;99.90
18717;DHT22;9487;50.892;6.906;2023-05-16T03:06:39;9.60;99.90
18717;DHT22;9487;50.892;6.906;2023-05-16T03:09:06;9.60;99.90
18717;DHT22;9487;50.892;6.906;2023-05-16T03:11:33;9.50;99.90
18717;DHT22;9487;50.892;6.906;2023-05-16T03:14:00;9.60;99.90
18717;DHT22;9487;50.892;6.906;2023-05-16T03:16:27;9.60;99.90
18717;DHT22;9487;50.892;6.906;2023-05-16T03:18:54;9.50;99.90
18717;DHT22;9487;50.892;6.906;2023-05-16T03:21:22;9.40;99.90
18717;DHT22;9487;50.892;6.906;2023-05-16T03:23:48;9.50;99.90
18717;DHT22;9487;50.892;6.906;2023-05-16T03:26:15;9.40;99.90
18717;DHT22;9487;50.892;6.906;2023-05-16T03:28:42;9.50;99.90
18717;DHT22;9487;50.892;6.906;2023-05-16T03:31:09;9.40;99.90
18717;DHT22;9487;50.892;6.906;2023-05-16T03:33:36;9.40;99.90
18717;DHT22;9487;50.892;6.906;2023-05-16T03:36:03;9.40;99.90
18717;DHT22;9487;50.892;6.906;2023-05-16T03:38:32;9.40;99.90
18717;DHT22;9487;50.892;6.906;2023-05-16T03:40:58;9.30;99.90
18717;DHT22;9487;50.892;6.906;2023-05-16T03:43:25;9.30;99.90
18717;DHT22;9487;50.892;6.906;2023-05-16T03:45:52;9.30;99.90
18717;DHT22;9487;50.892;6.906;2023-05-16T03:48:19;9.30;99.90
18717;DHT22;9487;50.892;6.906;2023-05-16T03:50:46;9.20;99.90
18717;DHT22;9487;50.892;6.906;2023-05-16T03:53:13;9.20;99.90
18717;DHT22;9487;50.892;6.906;2023-05-16T03:55:41;9.20;99.90
18717;DHT22;9487;50.892;6.906;2023-05-16T03:58:08;9.20;99.90
18717;DHT22;9487;50.892;6.906;2023-05-16T04:00:35;9.20;99.90
18717;DHT22;9487;50.892;6.906;2023-05-16T04:03:02;9.20;99.90
18717;DHT22;9487;50.892;6.906;2023-05-16T04:05:29;9.20;99.90
18717;DHT22;9487;50.892;6.906;2023-05-16T04:07:56;9.20;99.90
18717;DHT22;9487;50.892;6.906;2023-05-16T04:10:23;9.20;99.90
18717;DHT22;9487;50.892;6.906;2023-05-16T04:12:51;9.20;99.90
18717;DHT22;9487;50.892;6.906;2023-05-16T04:15:18;9.10;99.90
18717;DHT22;9487;50.892;6.906;2023-05-16T04:17:45;9.10;99.90
18717;DHT22;9487;50.892;6.906;2023-05-16T04:20:12;9.20;99.90
18717;DHT22;9487;50.892;6.906;2023-05-16T04:22:39;9.10;99.90
18717;DHT22;9487;50.892;6.906;2023-05-16T04:25:06;9.10;99.90
18717;DHT22;9487;50.892;6.906;2023-05-16T04:27:33;9.10;99.90
18717;DHT22;9487;50.892;6.906;2023-05-16T04:30:02;9.10;99.90
18717;DHT22;9487;50.892;6.906;2023-05-16T04:32:29;9.10;99.90
18717;DHT22;9487;50.892;6.906;2023-05-16T04:34:59;9.10;99.90
18717;DHT22;9487;50.892;6.906;2023-05-16T04:37:25;9.10;99.90
18717;DHT22;9487;50.892;6.906;2023-05-16T04:39:52;9.10;99.90
18717;DHT22;9487;50.892;6.906;2023-05-16T04:42:19;9.10;99.90
18717;DHT22;9487;50.892;6.906;2023-05-16T04:44:46;9.10;99.90
18717;DHT22;9487;50.892;6.906;2023-05-16T04:47:14;9.10;99.90
18717;DHT22;9487;50.892;6.906;2023-05-16T04:49:41;9.00;99.90
18717;DHT22;9487;50.892;6.906;2023-05-16T04:52:08;9.10;99.90
18717;DHT22;9487;50.892;6.906;2023-05-16T04:54:37;9.00;99.90
18717;DHT22;9487;50.892;6.906;2023-05-16T04:57:04;8.90;99.90
18717;DHT22;9487;50.892;6.906;2023-05-16T04:59:31;8.90;99.90
18717;DHT22;9487;50.892;6.906;2023-05-16T05:01:58;8.80;99.90
18717;DHT22;9487;50.892;6.906;2023-05-16T05:04:26;8.80;99.90
18717;DHT22;9487;50.892;6.906;2023-05-16T05:06:53;8.70;99.90
18717;DHT22;9487;50.892;6.906;2023-05-16T05:09:19;8.70;99.90
18717;DHT22;9487;50.892;6.906;2023-05-16T05:11:46;8.70;99.90
18717;DHT22;9487;50.892;6.906;2023-05-16T05:14:13;8.70;99.90
18717;DHT22;9487;50.892;6.906;2023-05-16T05:16:40;8.90;99.90
18717;DHT22;9487;50.892;6.906;2023-05-16T05:19:06;8.90;99.90
18717;DHT22;9487;50.892;6.906;2023-05-16T05:21:35;8.90;99.90
18717;DHT22;9487;50.892;6.906;2023-05-16T05:24:02;8.90;99.90
18717;DHT22;9487;50.892;6.906;2023-05-16T05:26:29;9.00;99.90
18717;DHT22;9487;50.892;6.906;2023-05-16T05:28:55;9.00;99.90
18717;DHT22;9487;50.892;6.906;2023-05-16T05:31:22;9.20;99.90
18717;DHT22;9487;50.892;6.906;2023-05-16T05:33:49;9.20;99.90
18717;DHT22;9487;50.892;6.906;2023-05-16T05:36:16;9.30;99.90
18717;DHT22;9487;50.892;6.906;2023-05-16T05:38:44;9.30;99.90
18717;DHT22;9487;50.892;6.906;2023-05-16T05:41:11;9.30;1.00
18717;DHT22;9487;50.892;6.906;2023-05-16T05:43:38;9.40;1.00
18717;DHT22;9487;50.892;6.906;2023-05-16T05:46:06;9.40;1.00
18717;DHT22;9487;50.892;6.906;2023-05-16T05:48:33;9.40;1.00
18717;DHT22;9487;50.892;6.906;2023-05-16T05:50:59;9.40;1.00
18717;DHT22;9487;50.892;6.906;2023-05-16T05:53:26;9.60;1.00
18717;DHT22;9487;50.892;6.906;2023-05-16T05:55:54;9.60;1.00
18717;DHT22;9487;50.892;6.906;2023-05-16T05:58:21;9.50;1.00
18717;DHT22;9487;50.892;6.906;2023-05-16T06:00:48;9.60;1.00
18717;DHT22;9487;50.892;6.906;2023-05-16T06:03:15;9.60;1.00
18717;DHT22;9487;50.892;6.906;2023-05-16T06:05:42;9.70;1.00
18717;DHT22;9487;50.892;6.906;2023-05-16T06:08:08;9.70;1.00
18717;DHT22;9487;50.892;6.906;2023-05-16T06:10:35;9.90;1.00
18717;DHT22;9487;50.892;6.906;2023-05-16T06:13:03;9.80;1.00
18717;DHT22;9487;50.892;6.906;2023-05-16T06:15:30;9.90;1.00
18717;DHT22;9487;50.892;6.906;2023-05-16T06:17:57;9.90;1.00
18717;DHT22;9487;50.892;6.906;2023-05-16T06:20:24;9.80;1.00
18717;DHT22;9487;50.892;6.906;2023-05-16T06:22:51;9.90;1.00
18717;DHT22;9487;50.892;6.906;2023-05-16T06:25:18;10.00;99.90
18717;DHT22;9487;50.892;6.906;2023-05-16T06:27:45;10.20;1.00
18717;DHT22;9487;50.892;6.906;2023-05-16T06:30:13;10.10;99.90
18717;DHT22;9487;50.892;6.906;2023-05-16T06:32:40;10.30;99.90
18717;DHT22;9487;50.892;6.906;2023-05-16T06:35:08;10.30;99.90
18717;DHT22;9487;50.892;6.906;2023-05-16T06:37:35;10.30;99.90
18717;DHT22;9487;50.892;6.906;2023-05-16T06:40:02;10.40;51.20
18717;DHT22;9487;50.892;6.906;2023-05-16T06:42:29;10.20;1.00
18717;DHT22;9487;50.892;6.906;2023-05-16T06:44:55;10.00;1.00
18717;DHT22;9487;50.892;6.906;2023-05-16T06:47:24;9.90;1.00
18717;DHT22;9487;50.892;6.906;2023-05-16T06:49:51;10.10;1.00
18717;DHT22;9487;50.892;6.906;2023-05-16T06:52:17;10.10;1.00
18717;DHT22;9487;50.892;6.906;2023-05-16T06:54:44;10.10;1.00
18717;DHT22;9487;50.892;6.906;2023-05-16T06:57:11;10.00;1.00
18717;DHT22;9487;50.892;6.906;2023-05-16T06:59:38;10.00;99.90
18717;DHT22;9487;50.892;6.906;2023-05-16T07:02:05;10.10;1.00
18717;DHT22;9487;50.892;6.906;2023-05-16T07:04:33;10.20;99.90
18717;DHT22;9487;50.892;6.906;2023-05-16T07:07:02;10.20;99.90
18717;DHT22;9487;50.892;6.906;2023-05-16T07:09:29;10.20;99.90
18717;DHT22;9487;50.892;6.906;2023-05-16T07:11:56;10.20;99.90
18717;DHT22;9487;50.892;6.906;2023-05-16T07:14:22;10.20;99.90
18717;DHT22;9487;50.892;6.906;2023-05-16T07:16:49;10.40;99.90
18717;DHT22;9487;50.892;6.906;2023-05-16T07:19:16;10.20;99.90
18717;DHT22;9487;50.892;6.906;2023-05-16T07:21:44;10.30;99.90
18717;DHT22;9487;50.892;6.906;2023-05-16T07:24:11;10.30;99.90
18717;DHT22;9487;50.892;6.906;2023-05-16T07:26:38;10.30;99.90
18717;DHT22;9487;50.892;6.906;2023-05-16T07:29:04;10.20;99.90
18717;DHT22;9487;50.892;6.906;2023-05-16T07:31:31;10.40;1.00
18717;DHT22;9487;50.892;6.906;2023-05-16T07:33:58;10.50;99.90
18717;DHT22;9487;50.892;6.906;2023-05-16T07:36:25;10.50;99.90
18717;DHT22;9487;50.892;6.906;2023-05-16T07:38:53;10.20;98.70
18717;DHT22;9487;50.892;6.906;2023-05-16T07:41:20;10.20;99.90
18717;DHT22;9487;50.892;6.906;2023-05-16T07:43:47;10.10;99.90
18717;DHT22;9487;50.892;6.906;2023-05-16T07:46:14;10.20;99.90
18717;DHT22;9487;50.892;6.906;2023-05-16T07:48:40;10.00;99.90
18717;DHT22;9487;50.892;6.906;2023-05-16T07:51:07;10.00;99.90
18717;DHT22;9487;50.892;6.906;2023-05-16T07:53:34;10.00;99.90
18717;DHT22;9487;50.892;6.906;2023-05-16T07:56:02;10.10;99.90
18717;DHT22;9487;50.892;6.906;2023-05-16T07:58:29;10.20;99.90
18717;DHT22;9487;50.892;6.906;2023-05-16T08:00:56;10.30;79.70
18717;DHT22;9487;50.892;6.906;2023-05-16T08:03:23;10.30;3.90
18717;DHT22;9487;50.892;6.906;2023-05-16T08:05:50;10.20;1.00
18717;DHT22;9487;50.892;6.906;2023-05-16T08:08:17;10.20;1.00
18717;DHT22;9487;50.892;6.906;2023-05-16T08:10:44;10.30;1.00
18717;DHT22;9487;50.892;6.906;2023-05-16T08:13:12;10.40;1.00
18717;DHT22;9487;50.892;6.906;2023-05-16T08:15:39;10.40;1.00
18717;DHT22;9487;50.892;6.906;2023-05-16T08:18:11;10.40;1.00
18717;DHT22;9487;50.892;6.906;2023-05-16T08:20:38;10.70;1.00
18717;DHT22;9487;50.892;6.906;2023-05-16T08:23:06;10.80;1.00
18717;DHT22;9487;50.892;6.906;2023-05-16T08:25:33;10.80;99.90
18717;DHT22;9487;50.892;6.906;2023-05-16T08:28:00;10.80;99.90
18717;DHT22;9487;50.892;6.906;2023-05-16T08:30:28;10.90;1.00
18717;DHT22;9487;50.892;6.906;2023-05-16T08:32:55;11.00;99.90
18717;DHT22;9487;50.892;6.906;2023-05-16T08:35:22;11.20;99.90
18717;DHT22;9487;50.892;6.906;2023-05-16T08:37:49;11.20;1.00
18717;DHT22;9487;50.892;6.906;2023-05-16T08:40:16;11.30;1.00
18717;DHT22;9487;50.892;6.906;2023-05-16T08:42:43;11.30;1.00
18717;DHT22;9487;50.892;6.906;2023-05-16T08:45:11;11.10;1.00
18717;DHT22;9487;50.892;6.906;2023-05-16T08:47:41;11.10;1.00
18717;DHT22;9487;50.892;6.906;2023-05-16T08:50:09;11.10;1.00
18717;DHT22;9487;50.892;6.906;2023-05-16T08:52:37;11.10;1.00
18717;DHT22;9487;50.892;6.906;2023-05-16T08:55:06;11.30;1.00
18717;DHT22;9487;50.892;6.906;2023-05-16T08:57:34;11.60;99.90
18717;DHT22;9487;50.892;6.906;2023-05-16T09:00:01;11.90;1.00
18717;DHT22;9487;50.892;6.906;2023-05-16T09:02:36;12.10;99.90
18717;DHT22;9487;50.892;6.906;2023-05-16T09:05:05;11.80;99.90
18717;DHT22;9487;50.892;6.906;2023-05-16T09:07:34;12.00;99.90
18717;DHT22;9487;50.892;6.906;2023-05-16T09:10:00;12.30;99.90
18717;DHT22;9487;50.892;6.906;2023-05-16T09:12:27;12.40;1.00
18717;DHT22;9487;50.892;6.906;2023-05-16T09:14:54;12.10;1.00
18717;DHT22;9487;50.892;6.906;2023-05-16T09:17:21;12.10;1.00
18717;DHT22;9487;50.892;6.906;2023-05-16T09:19:48;12.00;1.00
18717;DHT22;9487;50.892;6.906;2023-05-16T09:22:19;11.80;99.90
18717;DHT22;9487;50.892;6.906;2023-05-16T09:24:46;11.70;99.90
18717;DHT22;9487;50.892;6.906;2023-05-16T09:27:14;11.60;1.00
18717;DHT22;9487;50.892;6.906;2023-05-16T09:29:41;11.70;1.00
18717;DHT22;9487;50.892;6.906;2023-05-16T09:32:10;11.90;1.00
18717;DHT22;9487;50.892;6.906;2023-05-16T09:34:38;12.10;99.90
18717;DHT22;9487;50.892;6.906;2023-05-16T09:37:05;12.00;99.90
18717;DHT22;9487;50.892;6.906;2023-05-16T09:39:34;12.20;99.90
18717;DHT22;9487;50.892;6.906;2023-05-16T09:42:01;12.30;99.90
18717;DHT22;9487;50.892;6.906;2023-05-16T09:44:27;12.50;99.90
18717;DHT22;9487;50.892;6.906;2023-05-16T09:46:54;12.30;1.00
18717;DHT22;9487;50.892;6.906;2023-05-16T09:49:21;12.10;1.00
18717;DHT22;9487;50.892;6.906;2023-05-16T09:51:49;12.10;1.00
18717;DHT22;9487;50.892;6.906;2023-05-16T09:54:28;12.20;99.90
18717;DHT22;9487;50.892;6.906;2023-05-16T09:56:57;12.50;1.00
18717;DHT22;9487;50.892;6.906;2023-05-16T09:59:25;12.60;1.00
18717;DHT22;9487;50.892;6.906;2023-05-16T10:01:52;12.60;1.00
18717;DHT22;9487;50.892;6.906;2023-05-16T10:04:19;12.80;99.90
18717;DHT22;9487;50.892;6.906;2023-05-16T10:06:47;13.00;99.90
18717;DHT22;9487;50.892;6.906;2023-05-16T10:09:17;12.70;37.20
18717;DHT22;9487;50.892;6.906;2023-05-16T10:11:44;12.80;1.00
18717;DHT22;9487;50.892;6.906;2023-05-16T10:14:16;12.90;99.90
18717;DHT22;9487;50.892;6.906;2023-05-16T10:16:46;13.00;1.00
18717;DHT22;9487;50.892;6.906;2023-05-16T10:19:13;12.80;1.00
18717;DHT22;9487;50.892;6.906;2023-05-16T10:21:42;12.70;1.00
18717;DHT22;9487;50.892;6.906;2023-05-16T10:24:14;13.00;1.00
18717;DHT22;9487;50.892;6.906;2023-05-16T10:26:43;13.30;1.00
18717;DHT22;9487;50.892;6.906;2023-05-16T10:29:10;13.20;99.90
18717;DHT22;9487;50.892;6.906;2023-05-16T10:31:39;13.40;67.30
18717;DHT22;9487;50.892;6.906;2023-05-16T10:34:06;13.60;1.00
18717;DHT22;9487;50.892;6.906;2023-05-16T10:36:35;13.50;1.00
18717;DHT22;9487;50.892;6.906;2023-05-16T10:39:02;13.30;1.00
18717;DHT22;9487;50.892;6.906;2023-05-16T10:41:29;13.30;1.00
18717;DHT22;9487;50.892;6.906;2023-05-16T10:43:57;13.50;1.00
18717;DHT22;9487;50.892;6.906;2023-05-16T10:46:26;13.70;7.10
18717;DHT22;9487;50.892;6.906;2023-05-16T10:48:55;13.90;1.00
18717;DHT22;9487;50.892;6.906;2023-05-16T10:51:35;13.90;1.00
18717;DHT22;9487;50.892;6.906;2023-05-16T10:54:08;13.90;1.00
18717;DHT22;9487;50.892;6.906;2023-05-16T10:56:35;13.90;1.00
18717;DHT22;9487;50.892;6.906;2023-05-16T10:59:02;14.00;1.00
18717;DHT22;9487;50.892;6.906;2023-05-16T11:01:32;14.20;1.00
18717;DHT22;9487;50.892;6.906;2023-05-16T11:04:05;13.70;1.00
18717;DHT22;9487;50.892;6.906;2023-05-16T11:06:33;13.30;1.00
18717;DHT22;9487;50.892;6.906;2023-05-16T11:09:05;13.40;1.00
18717;DHT22;9487;50.892;6.906;2023-05-16T11:11:42;13.50;1.00
18717;DHT22;9487;50.892;6.906;2023-05-16T11:14:18;13.20;99.90
18717;DHT22;9487;50.892;6.906;2023-05-16T11:16:48;13.20;1.00
18717;DHT22;9487;50.892;6.906;2023-05-16T11:19:28;13.30;1.00
18717;DHT22;9487;50.892;6.906;2023-05-16T11:24:56;14.00;1.00
18717;DHT22;9487;50.892;6.906;2023-05-16T11:27:24;14.10;1.00
18717;DHT22;9487;50.892;6.906;2023-05-16T11:29:53;14.00;1.00
18717;DHT22;9487;50.892;6.906;2023-05-16T11:32:22;13.90;1.00
18717;DHT22;9487;50.892;6.906;2023-05-16T11:34:51;13.80;99.90
18717;DHT22;9487;50.892;6.906;2023-05-16T11:37:19;13.50;99.90
18717;DHT22;9487;50.892;6.906;2023-05-16T11:39:47;13.50;1.00
18717;DHT22;9487;50.892;6.906;2023-05-16T11:42:14;13.50;1.00
18717;DHT22;9487;50.892;6.906;2023-05-16T11:44:42;13.60;1.00
18717;DHT22;9487;50.892;6.906;2023-05-16T11:47:09;13.60;1.00
18717;DHT22;9487;50.892;6.906;2023-05-16T11:49:36;13.50;1.00
18717;DHT22;9487;50.892;6.906;2023-05-16T11:52:07;13.60;1.00
18717;DHT22;9487;50.892;6.906;2023-05-16T11:54:35;13.60;99.90
18717;DHT22;9487;50.892;6.906;2023-05-16T11:57:02;13.60;1.00
18717;DHT22;9487;50.892;6.906;2023-05-16T11:59:29;13.60;99.90
18717;DHT22;9487;50.892;6.906;2023-05-16T12:01:56;13.60;99.90
18717;DHT22;9487;50.892;6.906;2023-05-16T12:04:23;13.70;1.00
18717;DHT22;9487;50.892;6.906;2023-05-16T12:06:58;13.70;1.00
18717;DHT22;9487;50.892;6.906;2023-05-16T12:09:27;13.90;51.30
18717;DHT22;9487;50.892;6.906;2023-05-16T12:11:54;13.90;99.90
18717;DHT22;9487;50.892;6.906;2023-05-16T12:14:21;14.10;99.90
18717;DHT22;9487;50.892;6.906;2023-05-16T12:16:50;14.30;33.70
18717;DHT22;9487;50.892;6.906;2023-05-16T12:19:19;14.10;1.00
18717;DHT22;9487;50.892;6.906;2023-05-16T12:21:47;14.10;9.40
18717;DHT22;9487;50.892;6.906;2023-05-16T12:24:17;13.90;99.90
18717;DHT22;9487;50.892;6.906;2023-05-16T12:26:46;13.80;1.00
18717;DHT22;9487;50.892;6.906;2023-05-16T12:29:13;13.80;99.90
18717;DHT22;9487;50.892;6.906;2023-05-16T12:31:40;14.10;99.90
18717;DHT22;9487;50.892;6.906;2023-05-16T12:34:17;14.00;89.40
18717;DHT22;9487;50.892;6.906;2023-05-16T12:36:49;14.10;1.00
18717;DHT22;9487;50.892;6.906;2023-05-16T12:39:17;14.20;99.90
18717;DHT22;9487;50.892;6.906;2023-05-16T12:41:45;14.30;1.00
18717;DHT22;9487;50.892;6.906;2023-05-16T12:44:13;14.50;40.70
18717;DHT22;9487;50.892;6.906;2023-05-16T12:46:43;14.40;1.00
18717;DHT22;9487;50.892;6.906;2023-05-16T12:49:10;14.40;99.90
18717;DHT22;9487;50.892;6.906;2023-05-16T12:51:37;14.40;1.00
18717;DHT22;9487;50.892;6.906;2023-05-16T12:54:08;14.30;99.90
18717;DHT22;9487;50.892;6.906;2023-05-16T12:56:36;14.40;1.00
18717;DHT22;9487;50.892;6.906;2023-05-16T12:59:05;14.50;1.00
18717;DHT22;9487;50.892;6.906;2023-05-16T13:01:32;14.30;99.90
18717;DHT22;9487;50.892;6.906;2023-05-16T13:03:59;14.60;1.00
18717;DHT22;9487;50.892;6.906;2023-05-16T13:06:26;14.50;1.00
18717;DHT22;9487;50.892;6.906;2023-05-16T13:08:53;14.50;1.00
18717;DHT22;9487;50.892;6.906;2023-05-16T13:11:20;14.50;84.20
18717;DHT22;9487;50.892;6.906;2023-05-16T13:13:47;14.30;99.90
18717;DHT22;9487;50.892;6.906;2023-05-16T13:16:15;14.40;12.10
18717;DHT22;9487;50.892;6.906;2023-05-16T13:18:42;14.10;1.00
18717;DHT22;9487;50.892;6.906;2023-05-16T13:21:09;13.90;60.40
18717;DHT22;9487;50.892;6.906;2023-05-16T13:23:36;13.90;1.00
18717;DHT22;9487;50.892;6.906;2023-05-16T13:26:03;13.80;99.90
18717;DHT22;9487;50.892;6.906;2023-05-16T13:28:30;13.80;56.10
18717;DHT22;9487;50.892;6.906;2023-05-16T13:30:57;14.00;99.90
18717;DHT22;9487;50.892;6.906;2023-05-16T13:33:25;13.80;1.00
18717;DHT22;9487;50.892;6.906;2023-05-16T13:35:52;14.00;1.00
18717;DHT22;9487;50.892;6.906;2023-05-16T13:38:19;14.00;1.00
18717;DHT22;9487;50.892;6.906;2023-05-16T13:40:46;14.20;1.00
18717;DHT22;9487;50.892;6.906;2023-05-16T13:43:13;14.40;1.00
18717;DHT22;9487;50.892;6.906;2023-05-16T13:45:40;14.30;1.00
18717;DHT22;9487;50.892;6.906;2023-05-16T13:48:08;14.20;1.00
18717;DHT22;9487;50.892;6.906;2023-05-16T13:50:37;14.50;1.00
18717;DHT22;9487;50.892;6.906;2023-05-16T13:53:04;14.90;1.00
18717;DHT22;9487;50.892;6.906;2023-05-16T13:55:31;14.80;1.00
18717;DHT22;9487;50.892;6.906;2023-05-16T13:57:58;15.00;1.00
18717;DHT22;9487;50.892;6.906;2023-05-16T14:00:25;15.10;1.00
18717;DHT22;9487;50.892;6.906;2023-05-16T14:02:52;15.30;1.00
18717;DHT22;9487;50.892;6.906;2023-05-16T14:05:19;15.40;1.00
18717;DHT22;9487;50.892;6.906;2023-05-16T14:07:47;15.20;1.00
18717;DHT22;9487;50.892;6.906;2023-05-16T14:10:14;15.30;1.00
18717;DHT22;9487;50.892;6.906;2023-05-16T14:12:41;14.90;1.00
18717;DHT22;9487;50.892;6.906;2023-05-16T14:15:11;14.70;1.00
18717;DHT22;9487;50.892;6.906;2023-05-16T14:17:38;14.50;1.00
18717;DHT22;9487;50.892;6.906;2023-05-16T14:20:05;14.60;1.00
18717;DHT22;9487;50.892;6.906;2023-05-16T14:22:35;14.70;1.00
18717;DHT22;9487;50.892;6.906;2023-05-16T14:25:05;14.90;99.90
18717;DHT22;9487;50.892;6.906;2023-05-16T14:27:32;15.10;99.90
18717;DHT22;9487;50.892;6.906;2023-05-16T14:29:59;15.20;99.90
18717;DHT22;9487;50.892;6.906;2023-05-16T14:32:26;15.20;99.90
18717;DHT22;9487;50.892;6.906;2023-05-16T14:34:53;15.20;1.00
18717;DHT22;9487;50.892;6.906;2023-05-16T14:37:20;15.30;1.00
18717;DHT22;9487;50.892;6.906;2023-05-16T14:39:47;15.50;1.00
18717;DHT22;9487;50.892;6.906;2023-05-16T14:42:16;15.60;1.00
18717;DHT22;9487;50.892;6.906;2023-05-16T14:44:43;15.50;1.00
18717;DHT22;9487;50.892;6.906;2023-05-16T14:47:10;15.30;1.00
18717;DHT22;9487;50.892;6.906;2023-05-16T14:49:38;15.40;8.50
18717;DHT22;9487;50.892;6.906;2023-05-16T14:52:06;15.40;33.90
18717;DHT22;9487;50.892;6.906;2023-05-16T14:54:32;15.20;37.20
18717;DHT22;9487;50.892;6.906;2023-05-16T14:57:00;15.20;99.90
18717;DHT22;9487;50.892;6.906;2023-05-16T14:59:29;15.20;99.90
18717;DHT22;9487;50.892;6.906;2023-05-16T15:01:56;15.20;89.30
18717;DHT22;9487;50.892;6.906;2023-05-16T15:04:23;15.30;99.90
18717;DHT22;9487;50.892;6.906;2023-05-16T15:06:50;15.20;99.90
18717;DHT22;9487;50.892;6.906;2023-05-16T15:09:17;15.10;99.90
18717;DHT22;9487;50.892;6.906;2023-05-16T15:11:45;14.90;99.90
18717;DHT22;9487;50.892;6.906;2023-05-16T15:14:12;14.90;99.90
18717;DHT22;9487;50.892;6.906;2023-05-16T15:16:40;14.80;99.90
18717;DHT22;9487;50.892;6.906;2023-05-16T15:19:07;14.80;99.90
18717;DHT22;9487;50.892;6.906;2023-05-16T15:21:34;14.70;99.90
18717;DHT22;9487;50.892;6.906;2023-05-16T15:24:01;14.60;99.90
18717;DHT22;9487;50.892;6.906;2023-05-16T15:26:28;14.70;1.00
18717;DHT22;9487;50.892;6.906;2023-05-16T15:28:55;14.70;1.00
18717;DHT22;9487;50.892;6.906;2023-05-16T15:31:22;14.70;1.00
18717;DHT22;9487;50.892;6.906;2023-05-16T15:33:50;14.60;99.90
18717;DHT22;9487;50.892;6.906;2023-05-16T15:36:17;14.60;18.10
18717;DHT22;9487;50.892;6.906;2023-05-16T15:38:44;14.60;99.90
18717;DHT22;9487;50.892;6.906;2023-05-16T15:41:11;14.50;99.90
18717;DHT22;9487;50.892;6.906;2023-05-16T15:43:40;14.40;99.90
18717;DHT22;9487;50.892;6.906;2023-05-16T15:46:07;14.40;99.90
18717;DHT22;9487;50.892;6.906;2023-05-16T15:48:34;14.50;99.90
18717;DHT22;9487;50.892;6.906;2023-05-16T15:51:03;14.40;99.90
18717;DHT22;9487;50.892;6.906;2023-05-16T15:53:30;14.40;99.90
18717;DHT22;9487;50.892;6.906;2023-05-16T15:55:57;14.40;99.90
18717;DHT22;9487;50.892;6.906;2023-05-16T15:58:23;14.30;74.10
18717;DHT22;9487;50.892;6.906;2023-05-16T16:00:50;14.30;1.00
18717;DHT22;9487;50.892;6.906;2023-05-16T16:03:19;14.20;1.00
18717;DHT22;9487;50.892;6.906;2023-05-16T16:05:46;14.30;1.00
18717;DHT22;9487;50.892;6.906;2023-05-16T16:08:14;14.30;1.00